Impacts TAF Board INFO
FOR SITUATIONAL AWARENESS. NOT TO BE USED FOR FLIGHT PLANNING PURPOSES.
IDs:

KGEG - Spokane Intl, WA, US

Issued at 1743 UTC 18 Feb 2018
Updated at 1954 UTC 18 Feb 2018
Potential Impact None Slight Moderate High
Time1935Z 18/20Z 18/21Z 18/22Z 18/23Z 19/00Z 19/01Z 19/02Z 19/03Z 19/04Z 19/05Z 19/06Z 19/07Z 19/08Z>>
Type OBS PRVL
  [TEMP]  
PRVL
  [TEMP]  
PRVL PRVL PRVL PRVL PRVL PRVL PRVL PRVL PRVL PRVL PRVL
VIS 2 1.5
  [0.5]  
1.5
  [0.5]  
1.5 3 3 3 >6 >6 >6 >6 >6 >6 >6
CIG 30 20
  [9]  
20
  [9]  
20 30 30 30 70 70 70 70 70 70 70
Cover OVC BKN
  [OVC]  
BKN
  [OVC]  
BKN BKN BKN BKN BKN BKN BKN BKN BKN BKN BKN
FltCat IFR IFR
  [LIFR]  
IFR
  [LIFR]  
IFR MVFR MVFR MVFR VFR VFR VFR VFR VFR VFR VFR
WX -SN BR -SN BR
  [SN]  
-SN BR
  [SN]  
-SN BR -SHSN -SHSN -SHSN -- -- -- -- -- -- --
WDir 70 50
[50]
50
[50]
50 40 40 40 30 30 30 30 30 30 30
WSpd 13 10
  [10]  
10
  [10]  
10 14 14 14 12 12 12 12 12 12 12
WGst -- 17
  [17]  
17
  [17]  
17 24 24 24 25 25 25 25 25 25 25

Raw TAF
KGEG 181743Z 1818/1918 05010G17KT 1 1/2SM -SN BR SCT012 BKN020
  TEMPO 1819/1822 1/2SM SN OVC009
  FM182300 04014G24KT 3SM -SHSN SCT015 BKN030
  FM190200 03012G25KT P6SM SCT015 BKN070
  FM191100 04010G15KT P6SM SCT100


Raw METAR
KGEG 181935Z 07013KT 2SM -SN BR SCT011 BKN030 OVC035 M06/M08 A2965 RMK AO2 SFC VIS 3 P0000 T10611078 $
KGEG 181853Z 04010KT 2SM -SN BR BKN011 OVC017 M06/M08 A2964 RMK AO2 SFC VIS 2 1/2 SLP060 P0000 T10611078 $
KGEG 181832Z 02011KT 1 1/2SM -SN BR SCT011 BKN015 OVC030 M06/M07 A2964 RMK AO2 TWR VIS 2 P0000 T10611072 $
KGEG 181815Z 04010KT 2SM -SN BR FEW011 BKN015 OVC030 M06/M09 A2963 RMK AO2 P0000 T10561089 $
KGEG 181753Z 04009KT 4SM -SN BR FEW011 BKN015 OVC030 M06/M08 A2961 RMK AO2 SLP048 4/003 933007 P0000 60000 T10561078 11006 21061 51026 $
KGEG 181747Z 05010KT 5SM -SN BR SCT015 BKN025 OVC030 M06/M07 A2961 RMK AO2 P0000 $
KGEG 181707Z 07009KT 2SM R21/6000VP6000FT -SN BR SCT012 BKN025 BKN030 M06/M07 A2959 RMK AO2 VIS N-E 1 P0000 T10611072 $
KGEG 181653Z 05010G17KT 1 1/2SM R21/4500VP6000FT -SN BR SCT012 BKN020 M06/M08 A2958 RMK AO2 TWR VIS 2 SLP040 VIS SW-NW 1 P0000 T10561078 $
KGEG 181634Z 06010KT 1 1/2SM -SN BR SCT012 OVC020 M06/M08 A2957 RMK AO2 TWR VIS 2 P0000 T10611078 $

METAR Board
Radar Display
Forecast Discussion

FOR SITUATIONAL AWARENESS. NOT TO BE USED FOR FLIGHT PLANNING PURPOSES.